°C

Conditions at local time : on    Forecast:

Nearby METAR Reports

EGKA - Shoreham-By-Sea, United Kingdom
Distance from station: ENE 4mi, 6km
Updated: Tue, 21-May-2019 7:50pm BST
NOT Current
Clear
Clear
 Wind from WSW
Wind: WSW 9 mph , 15 km/h
Temperature: 17°C
Dew Point: 10°C
Humidity: 64%
Barometer: 1018 hPa
Summary: Clear
Visibility: greater than 7 miles , 10 km
2019/05/21 18:50 EGKA 211850Z 25008KT CAVOK 17/10 Q1018
EGKK - London/Gatwick A, United Kingdom
Distance from station: NNE 24mi, 39km
Updated: Wed, 22-May-2019 1:50am BST
Clear
Clear
 Wind from SW
Wind: SW 1 mph , 2 km/h
Temperature: 10°C
Dew Point: 7°C
Humidity: 82%
Barometer: 1020 hPa
Summary: Clear
Visibility: greater than 7 miles , 10 km
2019/05/22 00:50 EGKK 220050Z 22001KT CAVOK 10/07 Q1020
 
EGLF - Farnborough, United Kingdom
Distance from station: NNW 37mi, 59km
Updated: Wed, 22-May-2019 1:50am BST
Clear
Clear
 Wind from SW
Wind: SW 5 mph , 7 km/h
Temperature: 8°C
Wind Chill: 7°C
Dew Point: 6°C
Humidity: 87%
Barometer: 1020 hPa
Clouds: Clear
Visibility: 6 miles , 10 km
2019/05/22 00:50 EGLF 220050Z AUTO 23004KT 9999 NCD 08/06 Q1020
EGVO - Odiham Raf, United Kingdom
Distance from station: NW 38mi, 61km
Updated: Wed, 22-May-2019 1:50am BST
Clear
Clear
 Wind from WSW
Wind: WSW 3 mph , 6 km/h
Temperature: 10°C
Dew Point: 6°C
Humidity: 76%
Barometer: 1020 hPa
Summary: Clear
Visibility: greater than 7 miles , 10 km
2019/05/22 00:50 EGVO 220050Z 24003KT CAVOK 10/06 Q1020 BLU